sensor_id;sensor_type;location;lat;lon;timestamp;P1;durP1;ratioP1;P2;durP2;ratioP2
7957;SDS011;4024;52.172;5.378;2023-03-11T00:02:09;6.63;;;2.50;;
7957;SDS011;4024;52.172;5.378;2023-03-11T00:04:36;8.87;;;2.23;;
7957;SDS011;4024;52.172;5.378;2023-03-11T00:07:05;5.80;;;2.10;;
7957;SDS011;4024;52.172;5.378;2023-03-11T00:09:32;5.10;;;2.20;;
7957;SDS011;4024;52.172;5.378;2023-03-11T00:11:58;5.90;;;2.30;;
7957;SDS011;4024;52.172;5.378;2023-03-11T00:14:24;6.30;;;2.40;;
7957;SDS011;4024;52.172;5.378;2023-03-11T00:16:50;8.17;;;2.43;;
7957;SDS011;4024;52.172;5.378;2023-03-11T00:19:15;5.57;;;2.67;;
7957;SDS011;4024;52.172;5.378;2023-03-11T00:21:41;6.87;;;2.67;;
7957;SDS011;4024;52.172;5.378;2023-03-11T00:24:06;9.10;;;2.87;;
7957;SDS011;4024;52.172;5.378;2023-03-11T00:26:32;8.63;;;2.77;;
7957;SDS011;4024;52.172;5.378;2023-03-11T00:28:58;9.57;;;2.30;;
7957;SDS011;4024;52.172;5.378;2023-03-11T00:31:23;7.47;;;2.43;;
7957;SDS011;4024;52.172;5.378;2023-03-11T00:33:50;9.27;;;2.40;;
7957;SDS011;4024;52.172;5.378;2023-03-11T00:36:27;7.43;;;2.30;;
7957;SDS011;4024;52.172;5.378;2023-03-11T00:38:58;7.10;;;2.47;;
7957;SDS011;4024;52.172;5.378;2023-03-11T00:41:26;5.10;;;2.60;;
7957;SDS011;4024;52.172;5.378;2023-03-11T00:43:52;6.20;;;2.13;;
7957;SDS011;4024;52.172;5.378;2023-03-11T00:46:17;5.70;;;2.27;;
7957;SDS011;4024;52.172;5.378;2023-03-11T00:48:43;9.33;;;2.57;;
7957;SDS011;4024;52.172;5.378;2023-03-11T00:51:13;7.53;;;2.67;;
7957;SDS011;4024;52.172;5.378;2023-03-11T00:53:39;4.40;;;1.80;;
7957;SDS011;4024;52.172;5.378;2023-03-11T00:56:12;6.20;;;2.13;;
7957;SDS011;4024;52.172;5.378;2023-03-11T00:58:39;4.13;;;2.17;;
7957;SDS011;4024;52.172;5.378;2023-03-11T01:01:06;7.50;;;2.60;;
7957;SDS011;4024;52.172;5.378;2023-03-11T01:03:33;4.90;;;2.53;;
7957;SDS011;4024;52.172;5.378;2023-03-11T01:05:59;10.40;;;2.40;;
7957;SDS011;4024;52.172;5.378;2023-03-11T01:08:25;7.50;;;2.30;;
7957;SDS011;4024;52.172;5.378;2023-03-11T01:10:51;8.63;;;2.57;;
7957;SDS011;4024;52.172;5.378;2023-03-11T01:13:17;10.07;;;2.40;;
7957;SDS011;4024;52.172;5.378;2023-03-11T01:15:43;4.97;;;1.90;;
7957;SDS011;4024;52.172;5.378;2023-03-11T01:18:09;4.03;;;1.97;;
7957;SDS011;4024;52.172;5.378;2023-03-11T01:20:35;7.00;;;2.03;;
7957;SDS011;4024;52.172;5.378;2023-03-11T01:23:03;7.93;;;2.20;;
7957;SDS011;4024;52.172;5.378;2023-03-11T01:25:29;5.10;;;2.20;;
7957;SDS011;4024;52.172;5.378;2023-03-11T01:27:54;5.43;;;1.90;;
7957;SDS011;4024;52.172;5.378;2023-03-11T01:30:21;5.60;;;2.10;;
7957;SDS011;4024;52.172;5.378;2023-03-11T01:32:48;4.13;;;1.93;;
7957;SDS011;4024;52.172;5.378;2023-03-11T01:35:15;8.27;;;1.73;;
7957;SDS011;4024;52.172;5.378;2023-03-11T01:37:42;6.40;;;2.37;;
7957;SDS011;4024;52.172;5.378;2023-03-11T01:40:10;4.67;;;2.10;;
7957;SDS011;4024;52.172;5.378;2023-03-11T01:42:42;4.87;;;2.20;;
7957;SDS011;4024;52.172;5.378;2023-03-11T01:47:58;4.67;;;2.03;;
7957;SDS011;4024;52.172;5.378;2023-03-11T01:50:24;6.50;;;2.27;;
7957;SDS011;4024;52.172;5.378;2023-03-11T01:52:54;8.13;;;2.63;;
7957;SDS011;4024;52.172;5.378;2023-03-11T01:55:20;6.37;;;2.43;;
7957;SDS011;4024;52.172;5.378;2023-03-11T01:57:46;4.37;;;2.30;;
7957;SDS011;4024;52.172;5.378;2023-03-11T02:00:12;5.90;;;2.60;;
7957;SDS011;4024;52.172;5.378;2023-03-11T02:02:44;4.87;;;2.40;;
7957;SDS011;4024;52.172;5.378;2023-03-11T02:05:15;7.17;;;2.13;;
7957;SDS011;4024;52.172;5.378;2023-03-11T02:07:42;8.37;;;2.23;;
7957;SDS011;4024;52.172;5.378;2023-03-11T02:10:08;5.73;;;2.23;;
7957;SDS011;4024;52.172;5.378;2023-03-11T02:12:35;7.20;;;2.27;;
7957;SDS011;4024;52.172;5.378;2023-03-11T02:15:02;8.90;;;2.47;;
7957;SDS011;4024;52.172;5.378;2023-03-11T02:17:29;8.07;;;2.20;;
7957;SDS011;4024;52.172;5.378;2023-03-11T02:22:30;4.17;;;1.90;;
7957;SDS011;4024;52.172;5.378;2023-03-11T02:27:30;9.30;;;2.13;;
7957;SDS011;4024;52.172;5.378;2023-03-11T02:29:57;4.47;;;1.60;;
7957;SDS011;4024;52.172;5.378;2023-03-11T02:32:23;6.07;;;2.20;;
7957;SDS011;4024;52.172;5.378;2023-03-11T02:34:49;3.50;;;2.00;;
7957;SDS011;4024;52.172;5.378;2023-03-11T02:37:16;5.37;;;2.13;;
7957;SDS011;4024;52.172;5.378;2023-03-11T02:39:43;6.07;;;2.03;;
7957;SDS011;4024;52.172;5.378;2023-03-11T02:42:14;4.97;;;2.17;;
7957;SDS011;4024;52.172;5.378;2023-03-11T02:47:29;4.43;;;2.03;;
7957;SDS011;4024;52.172;5.378;2023-03-11T02:49:56;4.60;;;2.13;;
7957;SDS011;4024;52.172;5.378;2023-03-11T02:52:24;4.50;;;1.93;;
7957;SDS011;4024;52.172;5.378;2023-03-11T02:54:51;6.13;;;2.03;;
7957;SDS011;4024;52.172;5.378;2023-03-11T02:57:17;2.87;;;1.90;;
7957;SDS011;4024;52.172;5.378;2023-03-11T02:59:42;3.70;;;1.80;;
7957;SDS011;4024;52.172;5.378;2023-03-11T03:02:08;4.93;;;1.90;;
7957;SDS011;4024;52.172;5.378;2023-03-11T03:04:33;4.03;;;2.00;;
7957;SDS011;4024;52.172;5.378;2023-03-11T03:06:59;8.83;;;2.50;;
7957;SDS011;4024;52.172;5.378;2023-03-11T03:09:25;8.67;;;2.67;;
7957;SDS011;4024;52.172;5.378;2023-03-11T03:11:50;6.77;;;2.03;;
7957;SDS011;4024;52.172;5.378;2023-03-11T03:14:16;4.20;;;2.13;;
7957;SDS011;4024;52.172;5.378;2023-03-11T03:16:41;6.13;;;2.27;;
7957;SDS011;4024;52.172;5.378;2023-03-11T03:19:07;3.53;;;1.63;;
7957;SDS011;4024;52.172;5.378;2023-03-11T03:21:32;4.93;;;2.13;;
7957;SDS011;4024;52.172;5.378;2023-03-11T03:23:58;5.43;;;2.30;;
7957;SDS011;4024;52.172;5.378;2023-03-11T03:26:24;3.43;;;2.20;;
7957;SDS011;4024;52.172;5.378;2023-03-11T03:28:49;6.03;;;2.27;;
7957;SDS011;4024;52.172;5.378;2023-03-11T03:31:15;4.00;;;2.00;;
7957;SDS011;4024;52.172;5.378;2023-03-11T03:33:40;4.83;;;2.27;;
7957;SDS011;4024;52.172;5.378;2023-03-11T03:36:07;7.17;;;2.67;;
7957;SDS011;4024;52.172;5.378;2023-03-11T03:38:34;3.90;;;2.13;;
7957;SDS011;4024;52.172;5.378;2023-03-11T03:41:00;4.77;;;2.00;;
7957;SDS011;4024;52.172;5.378;2023-03-11T03:43:25;4.73;;;2.00;;
7957;SDS011;4024;52.172;5.378;2023-03-11T03:45:58;5.23;;;2.00;;
7957;SDS011;4024;52.172;5.378;2023-03-11T03:48:25;6.73;;;2.00;;
7957;SDS011;4024;52.172;5.378;2023-03-11T03:50:50;5.13;;;2.20;;
7957;SDS011;4024;52.172;5.378;2023-03-11T03:53:16;5.90;;;2.00;;
7957;SDS011;4024;52.172;5.378;2023-03-11T03:55:42;6.73;;;2.10;;
7957;SDS011;4024;52.172;5.378;2023-03-11T03:58:08;4.47;;;2.10;;
7957;SDS011;4024;52.172;5.378;2023-03-11T04:00:33;7.10;;;2.20;;
7957;SDS011;4024;52.172;5.378;2023-03-11T04:02:59;5.60;;;2.30;;
7957;SDS011;4024;52.172;5.378;2023-03-11T04:05:25;5.47;;;2.27;;
7957;SDS011;4024;52.172;5.378;2023-03-11T04:07:51;6.20;;;2.37;;
7957;SDS011;4024;52.172;5.378;2023-03-11T04:10:18;3.83;;;2.10;;
7957;SDS011;4024;52.172;5.378;2023-03-11T04:12:43;4.63;;;2.00;;
7957;SDS011;4024;52.172;5.378;2023-03-11T04:15:09;4.07;;;2.10;;
7957;SDS011;4024;52.172;5.378;2023-03-11T04:17:36;6.47;;;2.30;;
7957;SDS011;4024;52.172;5.378;2023-03-11T04:20:02;5.07;;;2.10;;
7957;SDS011;4024;52.172;5.378;2023-03-11T04:22:31;6.37;;;2.40;;
7957;SDS011;4024;52.172;5.378;2023-03-11T04:24:56;4.60;;;2.30;;
7957;SDS011;4024;52.172;5.378;2023-03-11T04:27:22;4.60;;;2.30;;
7957;SDS011;4024;52.172;5.378;2023-03-11T04:29:48;5.20;;;2.20;;
7957;SDS011;4024;52.172;5.378;2023-03-11T04:32:13;3.57;;;2.17;;
7957;SDS011;4024;52.172;5.378;2023-03-11T04:34:39;4.47;;;2.47;;
7957;SDS011;4024;52.172;5.378;2023-03-11T04:37:04;5.23;;;2.10;;
7957;SDS011;4024;52.172;5.378;2023-03-11T04:39:30;4.37;;;2.40;;
7957;SDS011;4024;52.172;5.378;2023-03-11T04:41:56;6.90;;;2.67;;
7957;SDS011;4024;52.172;5.378;2023-03-11T04:44:21;7.07;;;2.13;;
7957;SDS011;4024;52.172;5.378;2023-03-11T04:46:47;4.27;;;2.17;;
7957;SDS011;4024;52.172;5.378;2023-03-11T04:49:13;4.10;;;2.20;;
7957;SDS011;4024;52.172;5.378;2023-03-11T04:51:38;4.73;;;2.10;;
7957;SDS011;4024;52.172;5.378;2023-03-11T04:54:04;4.53;;;2.30;;
7957;SDS011;4024;52.172;5.378;2023-03-11T04:56:30;6.30;;;1.90;;
7957;SDS011;4024;52.172;5.378;2023-03-11T04:58:55;5.20;;;2.03;;
7957;SDS011;4024;52.172;5.378;2023-03-11T05:01:21;3.80;;;2.00;;
7957;SDS011;4024;52.172;5.378;2023-03-11T05:03:46;2.67;;;1.90;;
7957;SDS011;4024;52.172;5.378;2023-03-11T05:06:12;4.30;;;2.47;;
7957;SDS011;4024;52.172;5.378;2023-03-11T05:08:38;6.03;;;2.50;;
7957;SDS011;4024;52.172;5.378;2023-03-11T05:11:04;3.57;;;2.00;;
7957;SDS011;4024;52.172;5.378;2023-03-11T05:13:31;5.20;;;2.20;;
7957;SDS011;4024;52.172;5.378;2023-03-11T05:15:56;4.60;;;2.40;;
7957;SDS011;4024;52.172;5.378;2023-03-11T05:18:22;3.10;;;2.17;;
7957;SDS011;4024;52.172;5.378;2023-03-11T05:20:47;4.23;;;2.17;;
7957;SDS011;4024;52.172;5.378;2023-03-11T05:23:13;3.37;;;1.90;;
7957;SDS011;4024;52.172;5.378;2023-03-11T05:25:39;6.30;;;2.40;;
7957;SDS011;4024;52.172;5.378;2023-03-11T05:28:04;3.77;;;2.20;;
7957;SDS011;4024;52.172;5.378;2023-03-11T05:30:30;4.00;;;2.20;;
7957;SDS011;4024;52.172;5.378;2023-03-11T05:32:55;3.57;;;2.17;;
7957;SDS011;4024;52.172;5.378;2023-03-11T05:35:21;2.77;;;1.90;;
7957;SDS011;4024;52.172;5.378;2023-03-11T05:37:47;4.23;;;2.57;;
7957;SDS011;4024;52.172;5.378;2023-03-11T05:40:13;3.40;;;1.80;;
7957;SDS011;4024;52.172;5.378;2023-03-11T05:42:39;2.60;;;2.03;;
7957;SDS011;4024;52.172;5.378;2023-03-11T05:45:06;5.10;;;2.07;;
7957;SDS011;4024;52.172;5.378;2023-03-11T05:47:32;2.77;;;2.30;;
7957;SDS011;4024;52.172;5.378;2023-03-11T05:49:58;4.10;;;2.40;;
7957;SDS011;4024;52.172;5.378;2023-03-11T05:52:24;7.43;;;2.40;;
7957;SDS011;4024;52.172;5.378;2023-03-11T05:54:50;2.50;;;1.90;;
7957;SDS011;4024;52.172;5.378;2023-03-11T05:57:16;6.73;;;2.37;;
7957;SDS011;4024;52.172;5.378;2023-03-11T05:59:42;8.70;;;3.43;;
7957;SDS011;4024;52.172;5.378;2023-03-11T06:02:08;3.23;;;2.37;;
7957;SDS011;4024;52.172;5.378;2023-03-11T06:04:34;5.40;;;2.30;;
7957;SDS011;4024;52.172;5.378;2023-03-11T06:07:00;4.87;;;2.17;;
7957;SDS011;4024;52.172;5.378;2023-03-11T06:09:25;2.87;;;2.10;;
7957;SDS011;4024;52.172;5.378;2023-03-11T06:11:51;7.00;;;2.87;;
7957;SDS011;4024;52.172;5.378;2023-03-11T06:14:17;7.90;;;2.20;;
7957;SDS011;4024;52.172;5.378;2023-03-11T06:16:42;7.80;;;2.37;;
7957;SDS011;4024;52.172;5.378;2023-03-11T06:19:08;6.40;;;2.73;;
7957;SDS011;4024;52.172;5.378;2023-03-11T06:21:34;7.37;;;2.13;;
7957;SDS011;4024;52.172;5.378;2023-03-11T06:23:59;5.07;;;2.33;;
7957;SDS011;4024;52.172;5.378;2023-03-11T06:26:25;7.10;;;2.30;;
7957;SDS011;4024;52.172;5.378;2023-03-11T06:28:51;5.30;;;2.40;;
7957;SDS011;4024;52.172;5.378;2023-03-11T06:31:18;5.57;;;2.43;;
7957;SDS011;4024;52.172;5.378;2023-03-11T06:33:46;4.47;;;2.23;;
7957;SDS011;4024;52.172;5.378;2023-03-11T06:36:13;4.93;;;2.57;;
7957;SDS011;4024;52.172;5.378;2023-03-11T06:38:39;8.20;;;2.27;;
7957;SDS011;4024;52.172;5.378;2023-03-11T06:41:05;3.87;;;2.23;;
7957;SDS011;4024;52.172;5.378;2023-03-11T06:43:31;4.40;;;2.37;;
7957;SDS011;4024;52.172;5.378;2023-03-11T06:45:58;7.80;;;2.70;;
7957;SDS011;4024;52.172;5.378;2023-03-11T06:48:24;4.97;;;2.43;;
7957;SDS011;4024;52.172;5.378;2023-03-11T06:53:22;3.80;;;2.77;;
7957;SDS011;4024;52.172;5.378;2023-03-11T06:56:04;11.50;;;2.83;;
7957;SDS011;4024;52.172;5.378;2023-03-11T06:58:32;9.03;;;3.20;;
7957;SDS011;4024;52.172;5.378;2023-03-11T07:01:00;3.00;;;2.57;;
7957;SDS011;4024;52.172;5.378;2023-03-11T07:03:28;4.43;;;2.50;;
7957;SDS011;4024;52.172;5.378;2023-03-11T07:05:53;7.13;;;2.60;;
7957;SDS011;4024;52.172;5.378;2023-03-11T07:08:19;6.13;;;3.00;;
7957;SDS011;4024;52.172;5.378;2023-03-11T07:10:45;2.93;;;2.43;;
7957;SDS011;4024;52.172;5.378;2023-03-11T07:13:10;4.10;;;3.00;;
7957;SDS011;4024;52.172;5.378;2023-03-11T07:15:36;6.63;;;3.20;;
7957;SDS011;4024;52.172;5.378;2023-03-11T07:18:02;5.07;;;2.50;;
7957;SDS011;4024;52.172;5.378;2023-03-11T07:20:28;5.37;;;2.80;;
7957;SDS011;4024;52.172;5.378;2023-03-11T07:22:53;5.17;;;3.20;;
7957;SDS011;4024;52.172;5.378;2023-03-11T07:25:19;4.23;;;2.80;;
7957;SDS011;4024;52.172;5.378;2023-03-11T07:27:44;4.03;;;2.67;;
7957;SDS011;4024;52.172;5.378;2023-03-11T07:30:10;5.27;;;3.13;;
7957;SDS011;4024;52.172;5.378;2023-03-11T07:32:36;4.60;;;2.90;;
7957;SDS011;4024;52.172;5.378;2023-03-11T07:35:01;5.63;;;2.87;;
7957;SDS011;4024;52.172;5.378;2023-03-11T07:37:27;7.17;;;3.90;;
7957;SDS011;4024;52.172;5.378;2023-03-11T07:39:54;2.57;;;2.30;;
7957;SDS011;4024;52.172;5.378;2023-03-11T07:42:19;6.43;;;2.80;;
7957;SDS011;4024;52.172;5.378;2023-03-11T07:44:45;5.50;;;2.80;;
7957;SDS011;4024;52.172;5.378;2023-03-11T07:47:14;7.43;;;2.70;;
7957;SDS011;4024;52.172;5.378;2023-03-11T07:49:39;6.20;;;3.13;;
7957;SDS011;4024;52.172;5.378;2023-03-11T07:52:05;4.00;;;2.47;;
7957;SDS011;4024;52.172;5.378;2023-03-11T07:54:30;4.50;;;2.50;;
7957;SDS011;4024;52.172;5.378;2023-03-11T07:56:56;3.63;;;2.30;;
7957;SDS011;4024;52.172;5.378;2023-03-11T07:59:21;5.10;;;2.53;;
7957;SDS011;4024;52.172;5.378;2023-03-11T08:01:47;5.80;;;2.30;;
7957;SDS011;4024;52.172;5.378;2023-03-11T08:04:14;7.33;;;2.60;;
7957;SDS011;4024;52.172;5.378;2023-03-11T08:06:41;2.90;;;2.50;;
7957;SDS011;4024;52.172;5.378;2023-03-11T08:09:08;4.60;;;2.40;;
7957;SDS011;4024;52.172;5.378;2023-03-11T08:11:34;4.97;;;2.30;;
7957;SDS011;4024;52.172;5.378;2023-03-11T08:14:00;3.30;;;2.30;;
7957;SDS011;4024;52.172;5.378;2023-03-11T08:16:27;3.13;;;1.93;;
7957;SDS011;4024;52.172;5.378;2023-03-11T08:18:53;4.47;;;2.13;;
7957;SDS011;4024;52.172;5.378;2023-03-11T08:21:20;4.40;;;2.00;;
7957;SDS011;4024;52.172;5.378;2023-03-11T08:23:48;3.43;;;2.20;;
7957;SDS011;4024;52.172;5.378;2023-03-11T08:26:15;6.57;;;2.40;;
7957;SDS011;4024;52.172;5.378;2023-03-11T08:28:42;4.60;;;2.17;;
7957;SDS011;4024;52.172;5.378;2023-03-11T08:31:12;4.07;;;1.97;;
7957;SDS011;4024;52.172;5.378;2023-03-11T08:33:37;2.70;;;1.80;;
7957;SDS011;4024;52.172;5.378;2023-03-11T08:36:03;5.80;;;2.33;;
7957;SDS011;4024;52.172;5.378;2023-03-11T08:38:29;4.03;;;2.07;;
7957;SDS011;4024;52.172;5.378;2023-03-11T08:40:54;4.07;;;1.80;;
7957;SDS011;4024;52.172;5.378;2023-03-11T08:43:20;2.97;;;2.00;;
7957;SDS011;4024;52.172;5.378;2023-03-11T08:45:46;4.07;;;1.80;;
7957;SDS011;4024;52.172;5.378;2023-03-11T08:48:11;3.30;;;1.60;;
7957;SDS011;4024;52.172;5.378;2023-03-11T08:50:40;3.90;;;1.80;;
7957;SDS011;4024;52.172;5.378;2023-03-11T08:53:07;3.57;;;1.60;;
7957;SDS011;4024;52.172;5.378;2023-03-11T08:55:33;6.43;;;1.90;;
7957;SDS011;4024;52.172;5.378;2023-03-11T08:57:59;2.77;;;1.60;;
7957;SDS011;4024;52.172;5.378;2023-03-11T09:00:24;3.97;;;2.13;;
7957;SDS011;4024;52.172;5.378;2023-03-11T09:02:50;2.83;;;1.70;;
7957;SDS011;4024;52.172;5.378;2023-03-11T09:05:16;1.77;;;1.63;;
7957;SDS011;4024;52.172;5.378;2023-03-11T09:07:41;3.83;;;1.70;;
7957;SDS011;4024;52.172;5.378;2023-03-11T09:10:08;5.13;;;1.60;;
7957;SDS011;4024;52.172;5.378;2023-03-11T09:12:37;3.17;;;2.03;;
7957;SDS011;4024;52.172;5.378;2023-03-11T09:15:02;4.37;;;1.83;;
7957;SDS011;4024;52.172;5.378;2023-03-11T09:17:29;3.27;;;2.00;;
7957;SDS011;4024;52.172;5.378;2023-03-11T09:19:55;2.57;;;1.80;;
7957;SDS011;4024;52.172;5.378;2023-03-11T09:22:27;5.83;;;2.13;;
7957;SDS011;4024;52.172;5.378;2023-03-11T09:24:52;4.40;;;1.70;;
7957;SDS011;4024;52.172;5.378;2023-03-11T09:27:18;7.73;;;1.70;;
7957;SDS011;4024;52.172;5.378;2023-03-11T09:29:43;5.60;;;2.10;;
7957;SDS011;4024;52.172;5.378;2023-03-11T09:34:48;4.07;;;1.60;;
7957;SDS011;4024;52.172;5.378;2023-03-11T09:37:13;8.03;;;2.10;;
7957;SDS011;4024;52.172;5.378;2023-03-11T09:39:39;4.53;;;1.80;;
7957;SDS011;4024;52.172;5.378;2023-03-11T09:45:16;7.47;;;1.87;;
7957;SDS011;4024;52.172;5.378;2023-03-11T09:47:48;4.07;;;1.50;;
7957;SDS011;4024;52.172;5.378;2023-03-11T09:56:07;5.73;;;1.70;;
7957;SDS011;4024;52.172;5.378;2023-03-11T09:58:41;3.93;;;1.50;;
7957;SDS011;4024;52.172;5.378;2023-03-11T10:01:14;6.70;;;1.90;;
7957;SDS011;4024;52.172;5.378;2023-03-11T10:03:55;6.00;;;1.83;;
7957;SDS011;4024;52.172;5.378;2023-03-11T10:06:28;4.77;;;1.80;;
7957;SDS011;4024;52.172;5.378;2023-03-11T10:11:55;12.77;;;2.00;;
7957;SDS011;4024;52.172;5.378;2023-03-11T10:20:26;3.03;;;1.70;;
7957;SDS011;4024;52.172;5.378;2023-03-11T10:25:55;4.87;;;1.60;;
7957;SDS011;4024;52.172;5.378;2023-03-11T10:28:35;6.93;;;2.20;;
7957;SDS011;4024;52.172;5.378;2023-03-11T10:33:49;7.47;;;2.07;;
7957;SDS011;4024;52.172;5.378;2023-03-11T10:36:22;4.93;;;1.80;;
7957;SDS011;4024;52.172;5.378;2023-03-11T10:38:51;4.77;;;1.90;;
7957;SDS011;4024;52.172;5.378;2023-03-11T10:44:12;2.37;;;1.60;;
7957;SDS011;4024;52.172;5.378;2023-03-11T10:46:44;8.83;;;2.23;;
7957;SDS011;4024;52.172;5.378;2023-03-11T10:49:13;5.70;;;2.00;;
7957;SDS011;4024;52.172;5.378;2023-03-11T10:51:40;4.23;;;1.60;;
7957;SDS011;4024;52.172;5.378;2023-03-11T10:54:10;4.30;;;1.93;;
7957;SDS011;4024;52.172;5.378;2023-03-11T10:56:55;5.70;;;2.10;;
7957;SDS011;4024;52.172;5.378;2023-03-11T10:59:32;4.80;;;1.97;;
7957;SDS011;4024;52.172;5.378;2023-03-11T11:07:40;4.13;;;1.80;;
7957;SDS011;4024;52.172;5.378;2023-03-11T11:10:19;5.60;;;1.90;;
7957;SDS011;4024;52.172;5.378;2023-03-11T11:17:46;3.90;;;1.87;;
7957;SDS011;4024;52.172;5.378;2023-03-11T11:20:15;4.57;;;2.10;;
7957;SDS011;4024;52.172;5.378;2023-03-11T11:22:53;6.47;;;1.90;;
7957;SDS011;4024;52.172;5.378;2023-03-11T11:25:24;5.13;;;1.90;;
7957;SDS011;4024;52.172;5.378;2023-03-11T11:28:17;3.90;;;1.50;;
7957;SDS011;4024;52.172;5.378;2023-03-11T11:31:19;3.80;;;1.80;;
7957;SDS011;4024;52.172;5.378;2023-03-11T11:33:50;7.40;;;2.23;;
7957;SDS011;4024;52.172;5.378;2023-03-11T11:36:17;4.37;;;2.17;;
7957;SDS011;4024;52.172;5.378;2023-03-11T11:38:48;3.90;;;1.70;;
7957;SDS011;4024;52.172;5.378;2023-03-11T11:41:17;4.90;;;1.80;;
7957;SDS011;4024;52.172;5.378;2023-03-11T11:46:21;4.57;;;1.80;;
7957;SDS011;4024;52.172;5.378;2023-03-11T11:49:09;2.57;;;1.80;;
7957;SDS011;4024;52.172;5.378;2023-03-11T11:51:55;3.63;;;1.87;;
7957;SDS011;4024;52.172;5.378;2023-03-11T11:54:32;4.77;;;1.87;;
7957;SDS011;4024;52.172;5.378;2023-03-11T11:57:39;6.53;;;1.80;;
7957;SDS011;4024;52.172;5.378;2023-03-11T12:00:09;6.03;;;2.20;;
7957;SDS011;4024;52.172;5.378;2023-03-11T12:02:52;5.27;;;1.63;;
7957;SDS011;4024;52.172;5.378;2023-03-11T12:08:07;4.17;;;1.93;;
7957;SDS011;4024;52.172;5.378;2023-03-11T12:10:49;7.13;;;2.23;;
7957;SDS011;4024;52.172;5.378;2023-03-11T12:16:05;3.60;;;2.00;;
7957;SDS011;4024;52.172;5.378;2023-03-11T12:18:36;5.57;;;2.10;;
7957;SDS011;4024;52.172;5.378;2023-03-11T12:26:57;3.00;;;2.00;;
7957;SDS011;4024;52.172;5.378;2023-03-11T12:29:29;3.83;;;1.87;;
7957;SDS011;4024;52.172;5.378;2023-03-11T12:32:00;2.73;;;1.60;;
7957;SDS011;4024;52.172;5.378;2023-03-11T12:34:27;5.07;;;1.67;;
7957;SDS011;4024;52.172;5.378;2023-03-11T12:36:58;3.77;;;1.80;;
7957;SDS011;4024;52.172;5.378;2023-03-11T12:39:29;4.50;;;1.70;;
7957;SDS011;4024;52.172;5.378;2023-03-11T12:44:36;5.27;;;1.77;;
7957;SDS011;4024;52.172;5.378;2023-03-11T12:47:23;5.60;;;1.90;;
7957;SDS011;4024;52.172;5.378;2023-03-11T12:49:53;3.70;;;1.70;;
7957;SDS011;4024;52.172;5.378;2023-03-11T12:52:21;4.33;;;1.73;;
7957;SDS011;4024;52.172;5.378;2023-03-11T13:00:01;4.37;;;1.80;;
7957;SDS011;4024;52.172;5.378;2023-03-11T13:05:30;2.27;;;1.80;;
7957;SDS011;4024;52.172;5.378;2023-03-11T13:08:08;3.13;;;1.63;;
7957;SDS011;4024;52.172;5.378;2023-03-11T13:10:45;3.63;;;1.60;;
7957;SDS011;4024;52.172;5.378;2023-03-11T13:15:53;4.70;;;1.73;;
7957;SDS011;4024;52.172;5.378;2023-03-11T13:18:25;2.53;;;1.70;;
7957;SDS011;4024;52.172;5.378;2023-03-11T13:20:57;3.50;;;1.67;;
7957;SDS011;4024;52.172;5.378;2023-03-11T13:23:28;3.27;;;1.87;;
7957;SDS011;4024;52.172;5.378;2023-03-11T13:33:55;4.10;;;1.70;;
7957;SDS011;4024;52.172;5.378;2023-03-11T13:45:02;2.90;;;1.40;;
7957;SDS011;4024;52.172;5.378;2023-03-11T13:47:31;2.23;;;1.47;;
7957;SDS011;4024;52.172;5.378;2023-03-11T13:52:30;3.20;;;1.57;;
7957;SDS011;4024;52.172;5.378;2023-03-11T13:57:31;3.80;;;1.50;;
7957;SDS011;4024;52.172;5.378;2023-03-11T14:00:15;3.83;;;1.70;;
7957;SDS011;4024;52.172;5.378;2023-03-11T14:02:46;4.83;;;1.67;;
7957;SDS011;4024;52.172;5.378;2023-03-11T14:05:42;3.83;;;1.33;;
7957;SDS011;4024;52.172;5.378;2023-03-11T14:08:17;6.10;;;2.37;;
7957;SDS011;4024;52.172;5.378;2023-03-11T14:10:55;3.23;;;1.60;;
7957;SDS011;4024;52.172;5.378;2023-03-11T14:13:23;2.13;;;1.40;;
7957;SDS011;4024;52.172;5.378;2023-03-11T14:15:56;4.23;;;1.47;;
7957;SDS011;4024;52.172;5.378;2023-03-11T14:18:36;3.23;;;1.40;;
7957;SDS011;4024;52.172;5.378;2023-03-11T14:21:05;2.03;;;1.53;;
7957;SDS011;4024;52.172;5.378;2023-03-11T14:23:38;1.33;;;1.23;;
7957;SDS011;4024;52.172;5.378;2023-03-11T14:26:27;1.97;;;1.40;;
7957;SDS011;4024;52.172;5.378;2023-03-11T14:28:58;3.50;;;1.40;;
7957;SDS011;4024;52.172;5.378;2023-03-11T14:33:56;3.47;;;1.60;;
7957;SDS011;4024;52.172;5.378;2023-03-11T14:36:38;4.00;;;1.63;;
7957;SDS011;4024;52.172;5.378;2023-03-11T14:39:04;1.73;;;1.40;;
7957;SDS011;4024;52.172;5.378;2023-03-11T14:41:30;1.73;;;1.40;;
7957;SDS011;4024;52.172;5.378;2023-03-11T14:43:56;3.23;;;1.80;;
7957;SDS011;4024;52.172;5.378;2023-03-11T14:46:24;5.53;;;1.67;;
7957;SDS011;4024;52.172;5.378;2023-03-11T14:48:53;3.80;;;1.70;;
7957;SDS011;4024;52.172;5.378;2023-03-11T14:51:22;4.43;;;2.10;;
7957;SDS011;4024;52.172;5.378;2023-03-11T14:56:27;2.20;;;1.67;;
7957;SDS011;4024;52.172;5.378;2023-03-11T14:59:00;3.50;;;1.93;;
7957;SDS011;4024;52.172;5.378;2023-03-11T15:01:32;4.50;;;1.83;;
7957;SDS011;4024;52.172;5.378;2023-03-11T15:06:37;6.50;;;2.33;;
7957;SDS011;4024;52.172;5.378;2023-03-11T15:09:13;4.80;;;2.40;;
7957;SDS011;4024;52.172;5.378;2023-03-11T15:11:47;4.87;;;2.47;;
7957;SDS011;4024;52.172;5.378;2023-03-11T15:14:23;4.33;;;2.23;;
7957;SDS011;4024;52.172;5.378;2023-03-11T15:17:08;2.30;;;1.87;;
7957;SDS011;4024;52.172;5.378;2023-03-11T15:19:41;5.07;;;2.00;;
7957;SDS011;4024;52.172;5.378;2023-03-11T15:24:53;5.50;;;2.47;;
7957;SDS011;4024;52.172;5.378;2023-03-11T15:29:57;5.63;;;2.03;;
7957;SDS011;4024;52.172;5.378;2023-03-11T15:32:40;5.47;;;2.27;;
7957;SDS011;4024;52.172;5.378;2023-03-11T15:37:32;4.03;;;1.53;;
7957;SDS011;4024;52.172;5.378;2023-03-11T15:40:09;3.17;;;2.20;;
7957;SDS011;4024;52.172;5.378;2023-03-11T15:42:41;8.33;;;4.23;;
7957;SDS011;4024;52.172;5.378;2023-03-11T15:45:09;7.37;;;3.73;;
7957;SDS011;4024;52.172;5.378;2023-03-11T15:47:36;6.00;;;2.70;;
7957;SDS011;4024;52.172;5.378;2023-03-11T15:50:35;6.07;;;2.40;;
7957;SDS011;4024;52.172;5.378;2023-03-11T15:52:56;6.33;;;3.17;;
7957;SDS011;4024;52.172;5.378;2023-03-11T15:55:23;5.03;;;3.10;;
7957;SDS011;4024;52.172;5.378;2023-03-11T15:57:49;8.83;;;4.30;;
7957;SDS011;4024;52.172;5.378;2023-03-11T16:00:21;6.80;;;3.60;;
7957;SDS011;4024;52.172;5.378;2023-03-11T16:02:48;7.77;;;3.83;;
7957;SDS011;4024;52.172;5.378;2023-03-11T16:05:16;9.23;;;4.10;;
7957;SDS011;4024;52.172;5.378;2023-03-11T16:07:43;7.07;;;4.50;;
7957;SDS011;4024;52.172;5.378;2023-03-11T16:10:11;11.73;;;4.03;;
7957;SDS011;4024;52.172;5.378;2023-03-11T16:12:38;10.37;;;4.70;;
7957;SDS011;4024;52.172;5.378;2023-03-11T16:15:09;6.20;;;3.53;;
7957;SDS011;4024;52.172;5.378;2023-03-11T16:17:44;8.43;;;3.67;;
7957;SDS011;4024;52.172;5.378;2023-03-11T16:20:09;7.90;;;4.60;;
7957;SDS011;4024;52.172;5.378;2023-03-11T16:22:35;8.00;;;4.30;;
7957;SDS011;4024;52.172;5.378;2023-03-11T16:25:02;5.80;;;2.70;;
7957;SDS011;4024;52.172;5.378;2023-03-11T16:27:28;6.87;;;3.23;;
7957;SDS011;4024;52.172;5.378;2023-03-11T16:29:54;4.97;;;3.23;;
7957;SDS011;4024;52.172;5.378;2023-03-11T16:32:20;5.77;;;2.97;;
7957;SDS011;4024;52.172;5.378;2023-03-11T16:34:45;5.00;;;2.30;;
7957;SDS011;4024;52.172;5.378;2023-03-11T16:37:14;3.23;;;2.10;;
7957;SDS011;4024;52.172;5.378;2023-03-11T16:39:41;5.33;;;3.50;;
7957;SDS011;4024;52.172;5.378;2023-03-11T16:42:06;5.40;;;3.10;;
7957;SDS011;4024;52.172;5.378;2023-03-11T16:44:32;3.63;;;2.20;;
7957;SDS011;4024;52.172;5.378;2023-03-11T16:46:58;3.70;;;2.60;;
7957;SDS011;4024;52.172;5.378;2023-03-11T16:49:23;6.83;;;2.70;;
7957;SDS011;4024;52.172;5.378;2023-03-11T16:51:49;3.00;;;2.00;;
7957;SDS011;4024;52.172;5.378;2023-03-11T16:54:15;2.80;;;1.83;;
7957;SDS011;4024;52.172;5.378;2023-03-11T16:56:40;5.27;;;1.90;;
7957;SDS011;4024;52.172;5.378;2023-03-11T16:59:06;2.20;;;2.00;;
7957;SDS011;4024;52.172;5.378;2023-03-11T17:01:32;4.33;;;2.00;;
7957;SDS011;4024;52.172;5.378;2023-03-11T17:04:06;4.00;;;2.30;;
7957;SDS011;4024;52.172;5.378;2023-03-11T17:06:32;3.70;;;2.17;;
7957;SDS011;4024;52.172;5.378;2023-03-11T17:08:57;4.23;;;2.60;;
7957;SDS011;4024;52.172;5.378;2023-03-11T17:11:23;4.07;;;3.13;;
7957;SDS011;4024;52.172;5.378;2023-03-11T17:13:52;5.57;;;3.47;;
7957;SDS011;4024;52.172;5.378;2023-03-11T17:16:18;7.33;;;3.10;;
7957;SDS011;4024;52.172;5.378;2023-03-11T17:18:44;3.50;;;2.80;;
7957;SDS011;4024;52.172;5.378;2023-03-11T17:21:11;3.30;;;2.30;;